Time;durP1;ratioP1;P1;durP2;ratioP2;P2;SDS_P1;SDS_P2;PMS_P1;PMS_P2;Temp;Humidity;BMP_temperature;BMP_pressure;BME280_temperature;BME280_humidity;BME280_pressure;Samples;Min_cycle;Max_cycle;Signal;HPM_P1;HPM_P2
2022/05/02 00:01:55;;;;;;;17.73;14.27;;;13.40;75.80;;;;;;4998512;28;20473;-76
2022/05/02 00:04:24;;;;;;;15.83;14.20;;;13.30;76.00;;;;;;5000751;28;20451;-76
2022/05/02 00:06:53;;;;;;;17.20;13.83;;;13.30;76.00;;;;;;4995206;28;20441;-78
2022/05/02 00:09:21;;;;;;;16.73;14.43;;;13.20;76.10;;;;;;5001205;28;20556;-77
2022/05/02 00:11:49;;;;;;;20.80;15.40;;;13.20;76.10;;;;;;4999829;28;20446;-78
2022/05/02 00:14:17;;;;;;;18.40;14.50;;;13.20;76.10;;;;;;5004685;28;20478;-79
2022/05/02 00:16:45;;;;;;;44.20;31.30;;;13.10;76.20;;;;;;5000705;28;20491;-78
2022/05/02 00:19:13;;;;;;;42.27;31.80;;;13.10;76.30;;;;;;4999584;28;20474;-79
2022/05/02 00:21:41;;;;;;;25.30;21.10;;;13.10;76.30;;;;;;4998324;28;20453;-79
2022/05/02 00:24:10;;;;;;;23.17;18.60;;;13.10;76.40;;;;;;5000236;28;20461;-78
2022/05/02 00:26:38;;;;;;;17.80;14.60;;;13.10;76.40;;;;;;4998496;28;20476;-78
2022/05/02 00:29:06;;;;;;;14.57;12.40;;;13.10;76.30;;;;;;4999557;28;20484;-78
2022/05/02 00:31:34;;;;;;;16.40;12.43;;;13.10;76.10;;;;;;4998778;28;21066;-78
2022/05/02 00:34:03;;;;;;;15.13;11.47;;;13.10;76.00;;;;;;4993737;28;20462;-79
2022/05/02 00:36:31;;;;;;;13.90;12.40;;;13.00;75.90;;;;;;5004998;28;20871;-79
2022/05/02 00:38:59;;;;;;;14.33;12.83;;;13.00;75.90;;;;;;4996968;28;20481;-79
2022/05/02 00:41:29;;;;;;;14.50;12.70;;;12.90;75.90;;;;;;4997626;28;20495;-78
2022/05/02 00:43:57;;;;;;;15.00;13.03;;;12.90;75.90;;;;;;4997478;28;20489;-78
2022/05/02 00:46:27;;;;;;;12.77;11.47;;;12.90;75.80;;;;;;4997844;28;20476;-77
2022/05/02 00:48:55;;;;;;;16.33;13.77;;;12.80;75.80;;;;;;4995686;28;20576;-78
2022/05/02 00:51:23;;;;;;;18.80;14.60;;;12.80;75.80;;;;;;5016576;28;20479;-79
2022/05/02 00:53:53;;;;;;;17.90;15.10;;;12.80;75.80;;;;;;4999463;28;20461;-78
2022/05/02 00:56:21;;;;;;;201.23;87.07;;;12.70;75.80;;;;;;5005221;28;20464;-79
2022/05/02 00:58:51;;;;;;;341.37;136.40;;;12.70;75.60;;;;;;5002787;28;20799;-80
2022/05/02 01:01:19;;;;;;;257.33;101.27;;;12.60;75.50;;;;;;5001788;28;20477;-77
2022/05/02 01:03:48;;;;;;;152.07;62.87;;;12.50;75.60;;;;;;4994353;28;20449;-80
2022/05/02 01:09:02;;;;;;;81.70;41.10;;;12.50;75.80;;;;;;4998175;28;20472;-76
2022/05/02 01:11:30;;;;;;;66.43;35.50;;;12.50;75.80;;;;;;4999257;28;20452;-78
2022/05/02 01:13:59;;;;;;;47.30;28.90;;;12.50;75.90;;;;;;4998461;28;20465;-78
2022/05/02 01:16:29;;;;;;;43.10;27.30;;;12.50;75.80;;;;;;4999535;28;20994;-78
2022/05/02 01:19:00;;;;;;;30.20;20.37;;;12.40;75.70;;;;;;4999247;28;21437;-79
2022/05/02 01:21:30;;;;;;;32.13;24.97;;;12.40;75.70;;;;;;5000512;28;20519;-78
2022/05/02 01:24:00;;;;;;;48.57;32.80;;;12.40;75.60;;;;;;4996466;28;20472;-79
2022/05/02 01:26:29;;;;;;;29.50;21.50;;;12.30;75.50;;;;;;5000011;28;20456;-80
2022/05/02 01:28:58;;;;;;;25.30;20.80;;;12.30;75.50;;;;;;4998639;28;20479;-78
2022/05/02 01:31:26;;;;;;;23.57;18.40;;;12.20;75.70;;;;;;4998802;28;20472;-78
2022/05/02 01:33:55;;;;;;;20.07;16.80;;;12.20;75.70;;;;;;4996038;28;20468;-78
2022/05/02 01:36:24;;;;;;;22.63;17.40;;;12.30;75.80;;;;;;4998586;28;20485;-78
2022/05/02 01:38:54;;;;;;;33.53;20.33;;;12.30;75.70;;;;;;4996994;28;20479;-77
2022/05/02 01:41:22;;;;;;;28.30;20.10;;;12.30;75.70;;;;;;5013714;28;20463;-78
2022/05/02 01:43:50;;;;;;;19.03;13.97;;;12.30;75.50;;;;;;5005142;28;21297;-78
2022/05/02 01:46:18;;;;;;;52.40;32.03;;;12.20;75.40;;;;;;5001444;28;20480;-78
2022/05/02 01:48:46;;;;;;;29.40;20.50;;;12.20;75.30;;;;;;4998803;28;21174;-78
2022/05/02 01:51:14;;;;;;;27.20;18.50;;;12.10;75.40;;;;;;5005623;28;20460;-77
2022/05/02 01:53:43;;;;;;;25.77;16.80;;;12.10;75.30;;;;;;5005221;28;20460;-79
2022/05/02 01:56:12;;;;;;;22.03;16.27;;;12.00;75.40;;;;;;5002079;28;21177;-78
2022/05/02 01:58:40;;;;;;;25.70;18.90;;;12.00;75.50;;;;;;4996344;28;20485;-78
2022/05/02 02:01:08;;;;;;;43.90;29.43;;;12.00;75.40;;;;;;4999000;28;20484;-78
2022/05/02 02:03:36;;;;;;;26.70;20.90;;;12.00;75.40;;;;;;5005102;28;20454;-79
2022/05/02 02:06:04;;;;;;;29.80;22.17;;;12.00;75.30;;;;;;5002961;28;20801;-78
2022/05/02 02:08:34;;;;;;;23.37;16.50;;;12.00;75.20;;;;;;5002099;28;20599;-79
2022/05/02 02:11:04;;;;;;;24.23;16.30;;;12.00;75.20;;;;;;5002565;28;20457;-80
2022/05/02 02:13:35;;;;;;;24.17;16.87;;;11.90;75.10;;;;;;5002208;28;20547;-78
2022/05/02 02:16:06;;;;;;;27.73;21.40;;;12.00;75.10;;;;;;5000028;28;20477;-79
2022/05/02 02:18:35;;;;;;;23.37;16.80;;;12.00;75.10;;;;;;5005465;28;20469;-78
2022/05/02 02:21:03;;;;;;;22.00;17.10;;;11.90;75.00;;;;;;5003661;28;20462;-78
2022/05/02 02:23:31;;;;;;;24.60;18.63;;;11.90;75.10;;;;;;5000678;28;20450;-78
2022/05/02 02:26:00;;;;;;;18.33;15.83;;;11.80;75.00;;;;;;5022526;28;20460;-78
2022/05/02 02:28:28;;;;;;;17.37;13.50;;;11.80;74.90;;;;;;5008943;28;20575;-78
2022/05/02 02:30:57;;;;;;;16.70;14.57;;;11.70;75.00;;;;;;5001480;28;20489;-78
2022/05/02 02:33:25;;;;;;;15.37;13.07;;;11.70;75.10;;;;;;5007622;28;20460;-78
2022/05/02 02:35:53;;;;;;;16.20;13.40;;;11.70;75.20;;;;;;5005286;28;20480;-77
2022/05/02 02:38:21;;;;;;;17.90;13.57;;;11.70;75.20;;;;;;5005758;28;20476;-78
2022/05/02 02:40:49;;;;;;;14.00;12.50;;;11.70;75.10;;;;;;5005358;28;20456;-78
2022/05/02 02:43:17;;;;;;;15.17;13.00;;;11.70;75.20;;;;;;5001909;28;20479;-78
2022/05/02 02:45:45;;;;;;;14.47;12.70;;;11.70;75.10;;;;;;5003911;28;20483;-79
2022/05/02 02:48:15;;;;;;;15.07;12.17;;;11.70;75.00;;;;;;5010797;28;20480;-78
2022/05/02 02:50:43;;;;;;;14.00;11.93;;;11.70;74.80;;;;;;5005027;28;20457;-78
2022/05/02 02:53:11;;;;;;;16.00;12.73;;;11.70;74.80;;;;;;5003604;28;20498;-77
2022/05/02 02:55:39;;;;;;;21.23;15.60;;;11.60;74.70;;;;;;5002238;28;22248;-79
2022/05/02 02:58:07;;;;;;;18.57;15.50;;;11.60;74.80;;;;;;5003203;28;20480;-77
2022/05/02 03:00:35;;;;;;;15.53;13.17;;;11.60;74.80;;;;;;5007370;28;20472;-80
2022/05/02 03:03:04;;;;;;;14.20;12.70;;;11.60;74.70;;;;;;5006103;28;20784;-78
2022/05/02 03:08:20;;;;;;;16.37;13.57;;;11.50;74.60;;;;;;5006582;28;20532;-78
2022/05/02 03:10:48;;;;;;;15.03;13.17;;;11.40;74.60;;;;;;5003872;28;20798;-77
2022/05/02 03:13:16;;;;;;;15.00;13.27;;;11.40;74.70;;;;;;5004473;28;20477;-78
2022/05/02 03:15:44;;;;;;;16.77;14.07;;;11.40;74.70;;;;;;4999254;28;20473;-79
2022/05/02 03:18:12;;;;;;;14.53;12.30;;;11.40;74.70;;;;;;5010989;28;20876;-78
2022/05/02 03:20:41;;;;;;;14.97;11.90;;;11.40;74.70;;;;;;5003818;28;20458;-79
2022/05/02 03:23:09;;;;;;;14.30;11.80;;;11.40;74.70;;;;;;5006949;28;20456;-79
2022/05/02 03:25:37;;;;;;;15.70;12.80;;;11.40;74.80;;;;;;5006754;28;21166;-78
2022/05/02 03:28:06;;;;;;;16.23;12.97;;;11.40;74.70;;;;;;5002220;28;20484;-78
2022/05/02 03:30:40;;;;;;;17.40;12.60;;;11.40;74.60;;;;;;4998423;28;20468;-79
2022/05/02 03:33:08;;;;;;;14.57;12.53;;;11.30;74.60;;;;;;5002714;28;20530;-78
2022/05/02 03:35:36;;;;;;;16.63;12.20;;;11.30;74.60;;;;;;4996636;28;20468;-78
2022/05/02 03:38:06;;;;;;;15.80;13.00;;;11.30;74.50;;;;;;5003138;28;20843;-78
2022/05/02 03:40:34;;;;;;;15.27;12.10;;;11.30;74.40;;;;;;5000326;28;20453;-78
2022/05/02 03:43:02;;;;;;;15.57;12.37;;;11.30;74.40;;;;;;5001738;28;20449;-77
2022/05/02 03:45:30;;;;;;;15.40;12.80;;;11.20;74.50;;;;;;5000053;28;20465;-77
2022/05/02 03:47:59;;;;;;;17.33;11.57;;;11.20;74.50;;;;;;5003480;28;20958;-77
2022/05/02 03:50:27;;;;;;;15.17;12.00;;;11.20;74.50;;;;;;5004153;28;20461;-78
2022/05/02 03:52:55;;;;;;;14.27;11.67;;;11.20;74.40;;;;;;5004386;28;20446;-78
2022/05/02 03:55:25;;;;;;;15.97;12.43;;;11.20;74.40;;;;;;5004511;28;20453;-78
2022/05/02 03:57:53;;;;;;;15.90;12.20;;;11.20;74.40;;;;;;5002520;28;20485;-77
2022/05/02 04:00:21;;;;;;;13.80;11.37;;;11.10;74.40;;;;;;5005815;28;20547;-78
2022/05/02 04:02:52;;;;;;;18.07;11.70;;;11.10;74.30;;;;;;4999106;28;20457;-79
2022/05/02 04:05:20;;;;;;;13.93;11.70;;;11.10;74.20;;;;;;5005879;28;20481;-78
2022/05/02 04:07:48;;;;;;;13.07;11.23;;;11.10;74.20;;;;;;5012361;28;20470;-77
2022/05/02 04:10:16;;;;;;;15.10;12.33;;;11.00;74.20;;;;;;5005133;28;20450;-78
2022/05/02 04:12:46;;;;;;;17.20;12.43;;;11.00;74.20;;;;;;5003064;28;21135;-80
2022/05/02 04:15:14;;;;;;;19.17;12.80;;;11.00;74.30;;;;;;5000529;28;20956;-78
2022/05/02 04:17:42;;;;;;;14.00;12.07;;;11.00;74.30;;;;;;5008504;28;20580;-79
2022/05/02 04:20:11;;;;;;;14.27;11.90;;;11.00;74.30;;;;;;5005825;28;20460;-77
2022/05/02 04:22:41;;;;;;;14.13;11.70;;;11.00;74.20;;;;;;5004196;28;20467;-78
2022/05/02 04:25:10;;;;;;;17.67;13.40;;;10.90;74.20;;;;;;5007912;28;20458;-78
2022/05/02 04:27:38;;;;;;;14.07;11.23;;;10.90;74.20;;;;;;5008697;28;20900;-77
2022/05/02 04:30:09;;;;;;;13.87;11.40;;;10.90;74.20;;;;;;5002905;28;20445;-78
2022/05/02 04:32:37;;;;;;;17.00;13.00;;;10.90;74.10;;;;;;4999806;28;20469;-79
2022/05/02 04:35:06;;;;;;;20.13;16.60;;;10.90;74.10;;;;;;5002040;28;20456;-78
2022/05/02 04:37:34;;;;;;;19.40;13.50;;;10.90;74.10;;;;;;5001874;28;20472;-79
2022/05/02 04:40:02;;;;;;;21.10;15.33;;;10.80;74.00;;;;;;5003635;28;20457;-79
2022/05/02 04:42:30;;;;;;;18.53;12.80;;;10.80;74.10;;;;;;5004481;28;20469;-78
2022/05/02 04:44:58;;;;;;;19.10;14.10;;;10.80;74.10;;;;;;4998430;28;20465;-76
2022/05/02 04:47:28;;;;;;;18.23;12.87;;;10.80;74.20;;;;;;5003897;28;20476;-78
2022/05/02 04:50:03;;;;;;;19.70;14.90;;;10.80;74.20;;;;;;4999531;28;20476;-79
2022/05/02 04:52:31;;;;;;;18.60;14.23;;;10.80;74.20;;;;;;5001438;28;20455;-76
2022/05/02 04:54:59;;;;;;;15.77;13.60;;;10.80;74.30;;;;;;5001612;28;20450;-77
2022/05/02 04:57:27;;;;;;;19.83;15.27;;;10.80;74.30;;;;;;5007105;28;20507;-77
2022/05/02 04:59:55;;;;;;;19.83;14.63;;;10.80;74.40;;;;;;4999344;28;20449;-79
2022/05/02 05:02:23;;;;;;;19.00;16.47;;;10.80;74.50;;;;;;5001708;28;20479;-77
2022/05/02 05:04:53;;;;;;;21.10;18.13;;;10.80;74.70;;;;;;4999375;28;20552;-78
2022/05/02 05:07:21;;;;;;;18.73;16.00;;;10.90;74.80;;;;;;5003413;28;20473;-76
2022/05/02 05:09:49;;;;;;;15.60;13.80;;;10.90;74.80;;;;;;5000329;28;20449;-76
2022/05/02 05:12:30;;;;;;;17.90;13.60;;;11.00;74.80;;;;;;5000701;28;20465;-77
2022/05/02 05:18:10;;;;;;;20.80;16.00;;;10.90;74.90;;;;;;5005885;28;20486;-76
2022/05/02 05:20:51;;;;;;;20.50;17.40;;;10.90;75.10;;;;;;5000697;28;20837;-77
2022/05/02 05:23:41;;;;;;;22.30;17.83;;;10.90;75.40;;;;;;4997003;28;20462;-79
2022/05/02 05:26:14;;;;;;;20.80;17.90;;;10.90;75.70;;;;;;5002804;28;21258;-80
2022/05/02 05:28:57;;;;;;;20.93;16.40;;;11.00;76.00;;;;;;5002121;28;20479;-78
2022/05/02 05:31:32;;;;;;;20.20;16.10;;;11.10;76.20;;;;;;5004818;28;20884;-80
2022/05/02 05:34:17;;;;;;;18.37;16.10;;;11.30;76.40;;;;;;5000253;28;20460;-78
2022/05/02 05:37:14;;;;;;;18.50;15.77;;;11.40;76.70;;;;;;5001908;28;20475;-78
2022/05/02 05:39:50;;;;;;;16.87;14.90;;;11.70;77.80;;;;;;5000665;28;20476;-77
2022/05/02 05:42:27;;;;;;;16.37;14.40;;;12.80;79.90;;;;;;5002433;28;21071;-79
2022/05/02 05:45:02;;;;;;;18.17;14.40;;;14.10;79.30;;;;;;4998436;28;20456;-76
2022/05/02 05:47:41;;;;;;;17.80;12.93;;;15.40;77.70;;;;;;5001529;28;20479;-77
2022/05/02 05:50:18;;;;;;;19.60;14.70;;;16.60;75.80;;;;;;5014701;28;20481;-76
2022/05/02 05:52:58;;;;;;;17.90;13.20;;;17.60;73.80;;;;;;5001998;28;20469;-77
2022/05/02 05:55:31;;;;;;;15.83;13.43;;;18.40;72.00;;;;;;5003355;28;21287;-79
2022/05/02 05:58:07;;;;;;;17.63;15.37;;;18.80;70.20;;;;;;5000363;28;20489;-78
2022/05/02 06:00:44;;;;;;;18.00;14.83;;;18.80;68.20;;;;;;5000666;28;20476;-78
2022/05/02 06:03:15;;;;;;;21.67;14.90;;;18.30;67.20;;;;;;5016710;28;20469;-79
2022/05/02 06:05:44;;;;;;;16.80;14.07;;;17.60;67.20;;;;;;5002914;28;20506;-76
2022/05/02 06:08:17;;;;;;;16.13;13.90;;;16.80;67.60;;;;;;5001149;28;20507;-77
2022/05/02 06:10:46;;;;;;;17.10;14.47;;;16.20;68.30;;;;;;4998589;28;20467;-78
2022/05/02 06:13:16;;;;;;;19.53;14.60;;;15.70;68.80;;;;;;5003373;28;20453;-76
2022/05/02 06:18:55;;;;;;;18.10;13.50;;;14.90;70.00;;;;;;4997271;28;20501;-76
2022/05/02 06:21:24;;;;;;;16.30;13.80;;;14.60;70.70;;;;;;4995993;28;20452;-76
2022/05/02 06:23:53;;;;;;;17.10;14.50;;;14.40;71.20;;;;;;4995033;28;21220;-76
2022/05/02 06:26:24;;;;;;;17.87;15.63;;;14.30;71.60;;;;;;5001363;28;20939;-76
2022/05/02 06:28:52;;;;;;;16.67;13.40;;;14.20;71.90;;;;;;4997537;28;20477;-76
2022/05/02 06:31:24;;;;;;;26.37;12.93;;;14.10;72.20;;;;;;4999641;28;20485;-76
2022/05/02 06:33:53;;;;;;;22.00;11.20;;;14.10;72.50;;;;;;5002547;28;20973;-75
2022/05/02 06:37:00;;;;;;;13.83;10.10;;;14.10;72.80;;;;;;5003510;28;20457;-77
2022/05/02 06:39:40;;;;;;;16.90;10.80;;;14.00;72.70;;;;;;4998904;28;20859;-77
2022/05/02 06:42:23;;;;;;;15.27;10.70;;;14.00;73.00;;;;;;4995777;28;20449;-77
2022/05/02 06:45:04;;;;;;;13.13;10.03;;;14.00;73.10;;;;;;4996420;28;20985;-76
2022/05/02 06:47:45;;;;;;;14.77;9.53;;;14.00;73.30;;;;;;5000404;28;21072;-76
2022/05/02 06:50:17;;;;;;;16.33;10.80;;;14.00;73.30;;;;;;4996397;28;20488;-76
2022/05/02 06:52:56;;;;;;;19.73;12.60;;;14.00;73.40;;;;;;4999778;28;20460;-76
2022/05/02 06:55:34;;;;;;;13.70;10.23;;;13.90;73.50;;;;;;5000322;28;21076;-76
2022/05/02 06:58:16;;;;;;;13.10;9.70;;;14.00;73.60;;;;;;5000010;28;20509;-76
2022/05/02 07:00:50;;;;;;;14.00;11.10;;;14.00;73.70;;;;;;5001367;28;20856;-76
2022/05/02 07:03:46;;;;;;;13.13;8.80;;;14.00;73.80;;;;;;5002508;28;20464;-77
2022/05/02 07:06:28;;;;;;;14.33;8.80;;;14.00;73.80;;;;;;5001930;28;20489;-77
2022/05/02 07:09:01;;;;;;;14.40;9.07;;;14.10;73.70;;;;;;5005194;28;20481;-77
2022/05/02 07:11:39;;;;;;;10.90;8.47;;;14.10;73.80;;;;;;4999279;28;20457;-77
2022/05/02 07:14:15;;;;;;;13.50;9.20;;;14.20;73.90;;;;;;5002304;28;20469;-76
2022/05/02 07:16:50;;;;;;;15.13;10.13;;;14.20;73.80;;;;;;5000009;28;20476;-76
2022/05/02 07:19:40;;;;;;;14.10;10.30;;;14.20;73.80;;;;;;4999796;28;20563;-76
2022/05/02 07:22:11;;;;;;;12.97;8.50;;;14.30;73.90;;;;;;4998874;28;20469;-77
2022/05/02 07:24:47;;;;;;;11.97;9.07;;;14.30;73.80;;;;;;4998303;28;20460;-76
2022/05/02 07:27:28;;;;;;;11.60;8.60;;;14.40;73.80;;;;;;4998979;28;20461;-77
2022/05/02 07:29:59;;;;;;;15.10;8.93;;;14.50;73.80;;;;;;5000236;28;20454;-77
2022/05/02 07:32:28;;;;;;;12.50;8.47;;;14.50;73.70;;;;;;5000336;28;20549;-77
2022/05/02 07:34:56;;;;;;;20.07;10.27;;;14.60;73.70;;;;;;4997977;28;20477;-75
2022/05/02 07:37:24;;;;;;;19.97;11.37;;;14.70;73.60;;;;;;4997887;28;20463;-77
2022/05/02 07:39:54;;;;;;;16.30;9.50;;;14.80;73.70;;;;;;4999292;28;20485;-75
2022/05/02 07:42:27;;;;;;;15.33;9.43;;;14.90;73.50;;;;;;5003840;28;20478;-77
2022/05/02 07:44:59;;;;;;;11.43;8.33;;;14.90;73.30;;;;;;5006981;28;20456;-75
2022/05/02 07:47:32;;;;;;;13.27;9.00;;;15.00;73.20;;;;;;4998080;28;20488;-74
2022/05/02 07:50:00;;;;;;;13.00;9.30;;;15.10;73.00;;;;;;4999948;28;20466;-76
2022/05/02 07:52:30;;;;;;;14.30;9.90;;;15.10;72.80;;;;;;5000292;28;20464;-77
2022/05/02 07:55:01;;;;;;;11.87;9.10;;;15.20;72.50;;;;;;5000861;28;20465;-77
2022/05/02 07:57:33;;;;;;;15.73;9.87;;;15.20;72.40;;;;;;5000752;28;20468;-77
2022/05/02 08:00:02;;;;;;;11.93;8.53;;;15.30;72.10;;;;;;5003220;28;21125;-80
2022/05/02 08:02:39;;;;;;;15.30;10.43;;;15.30;72.00;;;;;;5007335;28;20469;-79
2022/05/02 08:05:07;;;;;;;13.73;10.20;;;15.30;72.10;;;;;;5004693;28;20548;-81
2022/05/02 08:07:37;;;;;;;13.77;9.53;;;15.40;71.90;;;;;;5005575;28;20545;-79
2022/05/02 08:10:33;;;;;;;14.70;10.00;;;15.40;71.70;;;;;;5006001;28;20460;-79
2022/05/02 08:13:09;;;;;;;11.17;9.07;;;15.50;71.70;;;;;;5002354;28;20552;-79
2022/05/02 08:15:47;;;;;;;17.93;10.33;;;15.50;71.70;;;;;;5007899;28;20481;-77
2022/05/02 08:18:49;;;;;;;14.27;9.53;;;15.60;71.60;;;;;;5003290;28;20477;-76
2022/05/02 08:21:21;;;;;;;16.50;10.20;;;15.70;71.20;;;;;;5005795;28;20944;-78
2022/05/02 08:27:17;;;;;;;15.27;10.70;;;15.80;71.00;;;;;;5005394;28;20476;-78
2022/05/02 08:29:57;;;;;;;17.30;10.63;;;15.80;70.90;;;;;;5008380;28;20508;-78
2022/05/02 08:32:34;;;;;;;21.70;10.73;;;15.80;70.40;;;;;;5006710;28;20482;-78
2022/05/02 08:35:07;;;;;;;18.60;10.20;;;15.80;70.60;;;;;;5008156;28;20908;-78
2022/05/02 08:37:54;;;;;;;13.13;9.63;;;15.80;70.50;;;;;;5001714;28;21030;-78
2022/05/02 08:40:40;;;;;;;14.90;11.13;;;15.80;70.50;;;;;;4999704;28;20478;-77
2022/05/02 08:43:53;;;;;;;16.27;10.67;;;15.80;70.50;;;;;;5003161;28;20445;-77
2022/05/02 08:47:16;;;;;;;15.27;10.70;;;15.90;70.10;;;;;;5007205;28;20995;-77
2022/05/02 08:50:23;;;;;;;18.30;11.13;;;16.00;70.20;;;;;;5000409;28;20481;-78
2022/05/02 08:53:18;;;;;;;15.63;10.90;;;16.00;70.00;;;;;;4998517;28;20456;-77
2022/05/02 08:55:59;;;;;;;15.33;11.27;;;16.00;70.20;;;;;;5008460;28;20825;-78
2022/05/02 08:59:04;;;;;;;15.53;11.50;;;16.00;70.10;;;;;;5009214;28;20484;-78
2022/05/02 09:02:07;;;;;;;14.37;10.80;;;16.10;69.60;;;;;;5004481;28;20472;-77
2022/05/02 09:05:17;;;;;;;13.80;10.40;;;16.10;69.80;;;;;;5005793;28;21044;-78
2022/05/02 09:08:23;;;;;;;17.83;11.80;;;16.10;70.00;;;;;;5008722;28;20468;-77
2022/05/02 09:11:08;;;;;;;16.30;11.47;;;16.20;69.80;;;;;;5007927;28;20458;-77
2022/05/02 09:14:28;;;;;;;17.20;12.20;;;16.20;69.70;;;;;;5002469;28;20802;-77
2022/05/02 09:17:41;;;;;;;17.30;11.40;;;16.30;69.70;;;;;;5001938;28;20484;-78
2022/05/02 09:20:42;;;;;;;16.07;11.53;;;16.30;69.60;;;;;;5007678;28;20461;-78
2022/05/02 09:23:54;;;;;;;14.77;10.73;;;16.30;69.70;;;;;;5008770;28;20452;-77
2022/05/02 09:26:46;;;;;;;14.67;11.77;;;16.40;69.80;;;;;;5005154;28;20449;-78
2022/05/02 09:29:48;;;;;;;15.00;12.43;;;16.40;69.70;;;;;;5010223;28;20483;-77
2022/05/02 09:32:30;;;;;;;21.80;12.23;;;16.50;69.60;;;;;;5006620;28;20476;-78
2022/05/02 09:35:04;;;;;;;14.80;12.07;;;16.50;69.70;;;;;;5002701;28;20524;-78
2022/05/02 09:37:39;;;;;;;17.30;11.93;;;16.60;69.60;;;;;;5003605;28;20946;-78
2022/05/02 09:40:12;;;;;;;16.40;11.23;;;16.70;69.40;;;;;;5003029;28;21187;-77
2022/05/02 09:42:51;;;;;;;15.20;11.70;;;16.70;69.40;;;;;;5006279;28;20463;-78
2022/05/02 09:52:03;;;;;;;16.50;11.40;;;16.80;69.20;;;;;;5003769;28;20524;-78
2022/05/02 09:57:36;;;;;;;14.30;11.07;;;16.90;69.10;;;;;;5001955;28;20457;-77
2022/05/02 10:02:52;;;;;;;18.10;11.57;;;17.00;68.90;;;;;;4993445;28;20469;-78
2022/05/02 10:05:30;;;;;;;15.40;12.10;;;17.10;68.60;;;;;;5007616;28;20462;-78
2022/05/02 10:08:02;;;;;;;16.37;12.10;;;17.20;68.40;;;;;;5007685;28;20829;-78
2022/05/02 10:10:42;;;;;;;14.87;10.97;;;17.20;68.40;;;;;;5012404;28;20480;-77
2022/05/02 10:13:21;;;;;;;15.83;11.40;;;17.20;68.10;;;;;;5008583;28;20548;-77
2022/05/02 10:16:06;;;;;;;15.23;11.47;;;17.30;68.10;;;;;;5009042;28;20472;-78
2022/05/02 10:18:47;;;;;;;12.73;10.50;;;17.30;67.70;;;;;;5001233;28;20534;-77
2022/05/02 10:21:39;;;;;;;13.73;9.97;;;17.40;67.40;;;;;;5010477;28;20470;-78
2022/05/02 10:24:37;;;;;;;20.50;11.60;;;17.50;67.30;;;;;;5009814;28;20459;-77
2022/05/02 10:27:19;;;;;;;13.77;9.60;;;17.50;67.10;;;;;;5012319;28;20449;-78
2022/05/02 10:30:04;;;;;;;13.67;10.47;;;17.60;67.20;;;;;;5008620;28;20479;-77
2022/05/02 10:32:43;;;;;;;15.83;9.97;;;17.70;67.00;;;;;;4999993;28;20483;-78
2022/05/02 10:35:13;;;;;;;18.10;10.00;;;17.70;66.80;;;;;;5010787;28;20520;-78
2022/05/02 10:37:47;;;;;;;11.90;9.60;;;17.70;66.70;;;;;;5007705;28;20949;-78
2022/05/02 10:40:18;;;;;;;13.03;9.70;;;17.70;66.40;;;;;;5004427;28;20493;-77
2022/05/02 10:42:52;;;;;;;15.33;10.63;;;17.70;66.40;;;;;;5014519;28;20457;-77
2022/05/02 10:45:19;;;;;;;14.97;10.17;;;17.80;66.20;;;;;;4998912;28;20465;-78
2022/05/02 10:47:52;;;;;;;13.60;10.37;;;17.80;66.00;;;;;;5004095;28;21206;-78
2022/05/02 10:50:26;;;;;;;13.47;9.57;;;17.90;65.80;;;;;;5006700;28;20478;-78
2022/05/02 10:53:13;;;;;;;12.10;10.40;;;17.90;65.60;;;;;;5007873;28;20452;-77
2022/05/02 10:55:56;;;;;;;13.50;10.00;;;18.00;65.40;;;;;;5009094;28;20449;-77
2022/05/02 10:58:24;;;;;;;11.63;9.50;;;17.90;65.00;;;;;;5005008;28;20484;-77
2022/05/02 11:01:19;;;;;;;12.60;9.13;;;17.90;65.20;;;;;;5001912;28;20829;-77
2022/05/02 11:04:00;;;;;;;14.93;9.40;;;17.90;65.10;;;;;;5006549;28;20506;-77
2022/05/02 11:06:41;;;;;;;12.80;9.37;;;18.00;65.00;;;;;;5010193;28;20453;-78
2022/05/02 11:09:19;;;;;;;15.20;10.10;;;18.00;64.90;;;;;;5001342;28;20473;-77
2022/05/02 11:11:50;;;;;;;17.07;9.80;;;18.00;64.80;;;;;;5010376;28;20446;-78
2022/05/02 11:14:45;;;;;;;15.00;10.17;;;18.00;64.70;;;;;;5004450;28;20456;-78
2022/05/02 11:17:22;;;;;;;12.40;8.60;;;18.00;64.50;;;;;;5008397;28;20486;-78
2022/05/02 11:23:02;;;;;;;12.13;8.00;;;18.00;64.40;;;;;;5009919;28;20476;-78
2022/05/02 11:25:39;;;;;;;13.40;8.83;;;18.00;64.50;;;;;;5000548;28;20918;-78
2022/05/02 11:28:24;;;;;;;11.63;8.63;;;18.00;64.40;;;;;;5007857;28;20858;-77
2022/05/02 11:31:02;;;;;;;14.00;8.50;;;18.10;64.40;;;;;;5009243;28;20475;-76
2022/05/02 11:33:38;;;;;;;12.60;8.37;;;18.10;64.40;;;;;;5008944;28;20982;-77
2022/05/02 11:36:10;;;;;;;9.20;7.63;;;18.10;64.40;;;;;;5001935;28;20460;-77
2022/05/02 11:38:50;;;;;;;13.20;7.60;;;18.10;64.30;;;;;;4996670;28;20476;-78
2022/05/02 11:41:22;;;;;;;13.90;8.00;;;18.20;64.30;;;;;;5002983;28;20507;-76
2022/05/02 11:43:53;;;;;;;11.10;7.60;;;18.20;64.10;;;;;;5002690;28;20510;-77
2022/05/02 11:46:26;;;;;;;10.90;7.70;;;18.20;64.00;;;;;;5003181;28;20564;-76
2022/05/02 11:49:13;;;;;;;9.57;7.43;;;18.20;63.90;;;;;;5005111;28;20492;-79
2022/05/02 11:51:46;;;;;;;11.23;7.43;;;18.20;63.70;;;;;;5002758;28;20516;-76
2022/05/02 11:54:35;;;;;;;11.77;7.00;;;18.20;63.80;;;;;;5006256;28;20531;-75
2022/05/02 11:57:26;;;;;;;10.57;7.30;;;18.20;63.60;;;;;;5006323;28;20453;-77
2022/05/02 12:00:05;;;;;;;8.93;6.60;;;18.30;63.50;;;;;;5002740;28;20858;-75
2022/05/02 12:02:48;;;;;;;10.73;7.03;;;18.40;63.70;;;;;;4999927;28;20539;-79
2022/05/02 12:05:24;;;;;;;9.40;7.17;;;18.50;63.40;;;;;;5002080;28;20460;-76
2022/05/02 12:07:53;;;;;;;10.07;7.57;;;18.50;63.50;;;;;;5012553;28;20478;-77
2022/05/02 12:10:31;;;;;;;13.63;7.77;;;18.60;63.40;;;;;;5002475;28;20468;-77
2022/05/02 12:13:01;;;;;;;9.77;6.57;;;18.60;63.20;;;;;;4998154;28;20457;-78
2022/05/02 12:15:29;;;;;;;12.13;7.77;;;18.70;63.00;;;;;;5000468;28;20986;-76
2022/05/02 12:18:03;;;;;;;10.60;8.20;;;18.70;62.90;;;;;;5005553;28;20481;-79
2022/05/02 12:20:33;;;;;;;11.13;8.13;;;18.60;62.70;;;;;;5005362;28;20981;-76
2022/05/02 12:23:04;;;;;;;13.70;8.30;;;18.60;62.70;;;;;;4999858;28;20454;-77
2022/05/02 12:25:34;;;;;;;8.70;7.20;;;18.70;62.80;;;;;;5016215;28;21060;-76
2022/05/02 12:28:03;;;;;;;10.40;7.80;;;18.70;62.90;;;;;;4998148;28;20485;-77
2022/05/02 12:30:32;;;;;;;9.80;8.10;;;18.80;62.90;;;;;;5006076;28;20460;-77
2022/05/02 12:33:03;;;;;;;11.50;7.50;;;18.80;62.50;;;;;;5001681;28;20469;-76
2022/05/02 12:35:40;;;;;;;13.57;7.10;;;18.80;62.50;;;;;;4998936;28;20453;-76
2022/05/02 12:38:15;;;;;;;13.67;8.23;;;18.90;62.40;;;;;;5006960;28;20485;-77
2022/05/02 12:40:52;;;;;;;14.27;7.20;;;18.90;62.30;;;;;;5004811;28;20534;-76
2022/05/02 12:43:27;;;;;;;12.53;6.80;;;18.90;62.10;;;;;;5008096;28;20464;-77
2022/05/02 12:45:55;;;;;;;11.00;6.90;;;18.90;62.10;;;;;;5001456;28;20887;-77
2022/05/02 12:48:29;;;;;;;10.97;6.40;;;18.90;62.20;;;;;;5008072;28;20484;-76
2022/05/02 12:50:59;;;;;;;20.73;7.07;;;18.90;62.30;;;;;;4998361;28;20759;-77
2022/05/02 12:56:14;;;;;;;11.60;8.33;;;18.90;62.20;;;;;;4997244;28;20452;-78
2022/05/02 13:01:43;;;;;;;16.17;8.93;;;18.80;62.20;;;;;;4999941;28;20499;-77
2022/05/02 13:04:17;;;;;;;11.63;7.23;;;18.90;62.30;;;;;;5006182;28;20515;-77
2022/05/02 13:06:46;;;;;;;11.93;7.60;;;18.90;62.30;;;;;;5001364;28;20457;-77
2022/05/02 13:09:18;;;;;;;9.60;7.17;;;19.00;62.20;;;;;;5000352;28;20986;-77
2022/05/02 13:11:49;;;;;;;13.37;8.33;;;19.00;62.20;;;;;;5000825;28;20461;-77
2022/05/02 13:14:23;;;;;;;11.70;7.33;;;19.00;62.10;;;;;;5001495;28;20452;-75
2022/05/02 13:16:52;;;;;;;11.13;6.50;;;19.10;61.90;;;;;;5000252;28;20472;-76
2022/05/02 13:19:33;;;;;;;10.87;7.67;;;19.10;62.10;;;;;;5001465;28;20493;-76
2022/05/02 13:22:01;;;;;;;15.07;7.53;;;19.10;62.10;;;;;;4998835;28;20548;-76
2022/05/02 13:24:29;;;;;;;10.03;6.77;;;19.10;62.10;;;;;;5000452;28;20938;-75
2022/05/02 13:27:07;;;;;;;9.53;6.87;;;19.20;62.10;;;;;;5004319;28;20453;-75
2022/05/02 13:29:53;;;;;;;11.03;7.60;;;19.20;61.90;;;;;;5003751;28;20572;-78
2022/05/02 13:32:26;;;;;;;10.40;7.50;;;19.20;61.90;;;;;;5003975;28;20469;-77
2022/05/02 13:35:10;;;;;;;10.10;7.90;;;19.30;61.70;;;;;;5002983;28;20551;-80
2022/05/02 13:37:54;;;;;;;10.57;7.07;;;19.20;61.60;;;;;;5002276;28;20984;-76
2022/05/02 13:40:22;;;;;;;11.30;7.57;;;19.30;61.50;;;;;;5016831;28;20454;-77
2022/05/02 13:42:55;;;;;;;11.57;8.30;;;19.30;61.50;;;;;;5008950;28;20479;-78
2022/05/02 13:45:41;;;;;;;12.13;7.60;;;19.30;61.50;;;;;;5001477;28;20586;-76